Little Falls, New Jersey
Current Conditions -  °F | °C
As of 6:53 PM on Saturday 20 Dec 2014 (Local Time) from KCDW Reporting Station
Overcast Overcast  
Wind Chill: 32°   Ceiling: 2900
Heat Index: 32°   Visibility: 10mi
Dew Point: 20°   Wind: 0mph
Humidity: 61%   Direction: NA
Pressure: 30.29"   Gusts: NA
Location:  40.88°N, 74.23°W
Report Text: KCDW 202353Z 00000KT 10SM OVC029 00/M07 A3029 RMK AO2 SLP264 T00001067 10000 21006 52006
Loading
Personal Weather Stations






























Interactive Weather Map New forecast layout! Learn more

10-Day Weather Forecast

Advertisements
Track Severe Weather on mobile